City Of Long Beach — WDC5007 — position and weather

sailwx.info

Track history (hours):
 
Tides and Currents Weather Stations Pressure Air Temp Water Temp Dewpoint Dewpoint Depression Visibility Wind Speed Wind Dir Waves Ship Positions

City Of Long Beach

Owner: Long Beach Anglers, Inc., Long Beach, CA. More information available from US FCC via Universal Licensing System and Coast Guard Vessel Documentation Center.

Last reported at 2018-Jun-20 23:32 UTC. Time now 2018-Jun-21 12:13 UTC.
Position N 33°46' W 118°12'.

; draft 2 m.

Type: Ship. MMSI: 367034320.

Date/timePositionNaut miles runAvg speedWind from/ knotsBaromVisibWave heightAir tempDewpointWater temp
2018-Jun-20 23:32N 33°46' W 118°12'0 0.0
2018-Jun-20 23:30N 33°46' W 118°12'1 2.4
2018-Jun-20 22:58N 33°45' W 118°11'3 6.1
2018-Jun-20 22:30N 33°42' W 118°11'3 6.3
2018-Jun-20 22:01N 33°40' W 118°14'0 0.0
2018-Jun-20 21:31N 33°40' W 118°14'0 0.0
2018-Jun-20 20:58N 33°40' W 118°14'2 4.6
2018-Jun-20 20:30N 33°38' W 118°12'2 4.7
2018-Jun-20 20:00N 33°36' W 118°11'0 0.0
2018-Jun-20 19:30N 33°36' W 118°11'0 0.0
2018-Jun-20 18:59N 33°36' W 118°11'1 2.7
2018-Jun-20 18:30N 33°37' W 118°11'4 8.2
2018-Jun-20 17:59N 33°41' W 118°09'3 5.5
2018-Jun-20 17:30N 33°44' W 118°08'3 6.6
2018-Jun-20 17:01N 33°46' W 118°12'0 0.9
2018-Jun-20 16:29N 33°45' W 118°11'1 0.0
2018-Jun-19 20:32N 33°46' W 118°12'0 0.0
2018-Jun-19 20:30N 33°46' W 118°12'0 0.0
2018-Jun-19 20:00N 33°46' W 118°12'0 0.0
2018-Jun-19 19:30N 33°46' W 118°12'0 0.0
2018-Jun-19 19:00N 33°46' W 118°12'0 0.0
2018-Jun-19 18:29N 33°46' W 118°12'0 0.0
2018-Jun-19 18:00N 33°46' W 118°12'0 0.0
2018-Jun-19 17:30N 33°46' W 118°12'0 0.0
2018-Jun-19 17:00N 33°46' W 118°12'0 0.0
2018-Jun-19 16:29N 33°46' W 118°12'0 0.2
2018-Jun-19 16:00N 33°46' W 118°12'1 2.2
2018-Jun-19 15:30N 33°45' W 118°11'1 2.4
2018-Jun-19 15:00N 33°46' W 118°12'0 0.0
2018-Jun-18 01:23N 33°46' W 118°12'2 6.2
2018-Jun-18 01:00N 33°43' W 118°11'4 8.6
2018-Jun-18 00:30N 33°39' W 118°11'4 7.1
2018-Jun-18 00:00N 33°36' W 118°13'0 0.0
2018-Jun-17 23:30N 33°36' W 118°13'0 0.3
2018-Jun-17 23:00N 33°36' W 118°13'0 0.0
2018-Jun-17 22:30N 33°36' W 118°13'2 3.7
2018-Jun-17 21:59N 33°35' W 118°10'0 0.0
2018-Jun-17 21:30N 33°35' W 118°10'2 4.1
2018-Jun-17 21:00N 33°37' W 118°11'4 8.4
2018-Jun-17 20:30N 33°42' W 118°11'4 8.0
2018-Jun-17 20:00N 33°46' W 118°12'0 0.3
2018-Jun-17 19:30N 33°46' W 118°12'1 1.7
2018-Jun-17 19:00N 33°45' W 118°11'4 8.1
2018-Jun-17 18:30N 33°41' W 118°11'4 8.4
2018-Jun-17 18:00N 33°37' W 118°12'1 2.5
2018-Jun-17 17:30N 33°36' W 118°13'0 0.0
2018-Jun-17 17:00N 33°36' W 118°13'0 0.0
2018-Jun-17 16:30N 33°36' W 118°13'0 0.0
2018-Jun-17 15:59N 33°36' W 118°13'0 0.0
2018-Jun-17 15:30N 33°36' W 118°13'0 0.0
2018-Jun-17 15:00N 33°36' W 118°13'3 6.4
2018-Jun-17 14:30N 33°39' W 118°12'4 8.6
2018-Jun-17 14:00N 33°43' W 118°11'2 5.0
2018-Jun-17 13:30N 33°46' W 118°12'0 0.0
2018-Jun-17 13:00N 33°46' W 118°12'0 0.0
2018-Jun-17 07:29N 33°46' W 118°12'1 1.5
2018-Jun-17 07:00N 33°45' W 118°11'4 8.2
2018-Jun-17 06:30N 33°41' W 118°11'3 5.7
2018-Jun-17 06:00N 33°38' W 118°12'3 5.3
2018-Jun-17 05:30N 33°36' W 118°13'0 0.0
2018-Jun-17 05:00N 33°36' W 118°13'0 0.0
2018-Jun-17 04:30N 33°36' W 118°13'0 0.0
2018-Jun-17 03:59N 33°36' W 118°13'1 2.0
2018-Jun-17 03:30N 33°37' W 118°13'3 5.8
2018-Jun-17 03:00N 33°40' W 118°13'1 1.3
2018-Jun-17 02:29N 33°40' W 118°13'4 7.8
2018-Jun-17 02:00N 33°44' W 118°11'2 4.3
2018-Jun-17 01:30N 33°46' W 118°12'0 0.4
2018-Jun-17 00:58N 33°46' W 118°12'4 7.9
2018-Jun-17 00:30N 33°42' W 118°11'3 6.4
2018-Jun-17 00:00N 33°40' W 118°14'0 0.0
2018-Jun-16 23:30N 33°40' W 118°14'0 0.7
2018-Jun-16 22:59N 33°39' W 118°14'0 0.0
2018-Jun-16 22:30N 33°39' W 118°14'0 0.0
2018-Jun-16 21:59N 33°39' W 118°14'0 0.2
2018-Jun-16 21:30N 33°39' W 118°14'4 7.4
2018-Jun-16 21:00N 33°43' W 118°12'3 5.7
2018-Jun-16 20:30N 33°44' W 118°08'1 1.4
2018-Jun-16 20:00N 33°44' W 118°09'3 5.6
2018-Jun-16 19:30N 33°46' W 118°12'0 0.0
2018-Jun-16 19:00N 33°46' W 118°12'3 5.8
2018-Jun-16 18:30N 33°43' W 118°11'4 7.9
2018-Jun-16 18:00N 33°39' W 118°12'3 6.4
2018-Jun-16 17:30N 33°36' W 118°13'0 0.0
2018-Jun-16 17:00N 33°36' W 118°13'0 0.1
2018-Jun-16 16:30N 33°36' W 118°13'0 0.0
2018-Jun-16 16:00N 33°36' W 118°13'0 0.1
2018-Jun-16 15:30N 33°36' W 118°13'0 0.1
2018-Jun-16 15:00N 33°36' W 118°13'4 8.1
2018-Jun-16 14:30N 33°40' W 118°12'4 8.3
2018-Jun-16 14:00N 33°44' W 118°11'2 3.8
2018-Jun-16 13:30N 33°46' W 118°12'0 0.0
2018-Jun-16 13:00N 33°46' W 118°12'0 0.0
2018-Jun-15 23:40N 33°46' W 118°12'0 0.3
2018-Jun-15 23:31N 33°46' W 118°12'1 1.8
2018-Jun-15 23:00N 33°45' W 118°11'3 5.2
2018-Jun-15 22:29N 33°42' W 118°11'3 6.9
2018-Jun-15 22:01N 33°40' W 118°14'0 0.8
2018-Jun-15 21:29N 33°40' W 118°14'0 0.0
2018-Jun-15 21:00N 33°40' W 118°14'0 0.0
2018-Jun-15 20:30N 33°40' W 118°14'3 5.8
2018-Jun-15 20:01N 33°37' W 118°13'1 1.9
2018-Jun-15 19:30N 33°36' W 118°13'0 0.1
2018-Jun-15 19:01N 33°36' W 118°13'0 0.0
2018-Jun-15 18:30N 33°36' W 118°13'2 4.7
2018-Jun-15 18:00N 33°38' W 118°12'4 8.1
2018-Jun-15 17:30N 33°42' W 118°11'3 6.9
2018-Jun-15 17:00N 33°46' W 118°12'0 0.1
2018-Jun-15 16:29N 33°46' W 118°12'3 6.8
2018-Jun-15 15:59N 33°43' W 118°08'0 0.5
2018-Jun-15 15:31N 33°44' W 118°09'3 0.2
2018-Jun-14 23:30N 33°46' W 118°12'1 1.2
2018-Jun-14 23:00N 33°45' W 118°11'3 5.8
2018-Jun-14 22:30N 33°42' W 118°11'3 6.1
2018-Jun-14 22:00N 33°40' W 118°13'1 1.0
2018-Jun-14 21:28N 33°40' W 118°14'0 0.0
2018-Jun-14 20:56N 33°40' W 118°14'0 0.8
2018-Jun-14 20:30N 33°39' W 118°14'0 0.0
2018-Jun-14 20:00N 33°39' W 118°14'4 6.8
2018-Jun-14 19:29N 33°36' W 118°13'1 1.3
2018-Jun-14 19:00N 33°36' W 118°13'0 0.0
2018-Jun-14 18:30N 33°36' W 118°13'3 5.6
2018-Jun-14 17:59N 33°39' W 118°12'4 8.7
2018-Jun-14 17:30N 33°43' W 118°11'3 5.9
2018-Jun-14 17:00N 33°46' W 118°12'0 0.0
2018-Jun-14 16:30N 33°46' W 118°12'3 6.4
2018-Jun-14 16:00N 33°44' W 118°09'0 0.4
2018-Jun-14 15:30N 33°44' W 118°09'3 0.2
2018-Jun-13 23:34N 33°46' W 118°12'0 0.0
2018-Jun-13 23:30N 33°46' W 118°12'1 2.7
2018-Jun-13 23:00N 33°45' W 118°11'4 8.0
2018-Jun-13 22:30N 33°41' W 118°11'2 4.4
2018-Jun-13 21:59N 33°39' W 118°14'0 0.0
2018-Jun-13 21:30N 33°39' W 118°14'0 0.0
2018-Jun-13 21:00N 33°39' W 118°14'1 1.2
2018-Jun-13 20:30N 33°39' W 118°14'3 6.3
2018-Jun-13 20:00N 33°36' W 118°13'0 0.0
2018-Jun-13 19:30N 33°36' W 118°13'0 0.0
2018-Jun-13 19:00N 33°36' W 118°13'0 0.1
2018-Jun-13 18:30N 33°36' W 118°13'1 2.1
2018-Jun-13 18:00N 33°37' W 118°12'4 8.4
2018-Jun-13 17:30N 33°41' W 118°11'4 8.6
2018-Jun-13 17:00N 33°45' W 118°11'1 1.3
2018-Jun-13 16:30N 33°46' W 118°12'0 0.1
2018-Jun-13 16:00N 33°46' W 118°12'1 1.6
2018-Jun-13 15:29N 33°45' W 118°11'1 0.1
2018-Jun-12 23:11N 33°46' W 118°12'0 0.0
2018-Jun-12 23:00N 33°46' W 118°12'2 4.3
2018-Jun-12 22:30N 33°44' W 118°11'4 8.3
2018-Jun-12 22:00N 33°40' W 118°12'4 7.3
2018-Jun-12 21:29N 33°36' W 118°13'0 0.0
2018-Jun-12 21:00N 33°36' W 118°13'0 0.0
2018-Jun-12 20:30N 33°36' W 118°13'0 0.2
2018-Jun-12 20:00N 33°36' W 118°13'1 2.2
2018-Jun-12 19:30N 33°36' W 118°11'0 0.2
2018-Jun-12 19:00N 33°36' W 118°11'4 7.9
2018-Jun-12 18:31N 33°39' W 118°13'1 1.3
2018-Jun-12 18:00N 33°40' W 118°14'4 7.2
2018-Jun-12 17:30N 33°43' W 118°11'3 6.5
2018-Jun-12 17:00N 33°46' W 118°12'0 0.0
2018-Jun-11 23:13N 33°46' W 118°12'0 0.8
2018-Jun-11 23:00N 33°46' W 118°12'4 7.3
2018-Jun-11 22:30N 33°42' W 118°11'2 4.2
2018-Jun-11 22:00N 33°40' W 118°12'1 1.3
2018-Jun-11 21:30N 33°39' W 118°12'1 2.5
2018-Jun-11 21:00N 33°40' W 118°13'2 4.5
2018-Jun-11 20:30N 33°38' W 118°12'2 4.8
2018-Jun-11 20:00N 33°36' W 118°11'0 0.0
2018-Jun-11 19:30N 33°36' W 118°11'0 0.0
2018-Jun-11 18:58N 33°36' W 118°11'0 0.6
2018-Jun-11 18:30N 33°36' W 118°11'4 7.9
2018-Jun-11 18:00N 33°40' W 118°11'4 7.9
2018-Jun-11 17:30N 33°44' W 118°11'2 4.2
2018-Jun-11 17:00N 33°46' W 118°12'0 0.0
2018-Jun-11 01:20N 33°46' W 118°12'2 5.1
2018-Jun-11 01:00N 33°44' W 118°11'2 3.8
2018-Jun-11 00:30N 33°42' W 118°11'1 2.7
2018-Jun-11 00:00N 33°42' W 118°09'  
Track history (hours):
 
Tides and Currents Weather Stations Pressure Air Temp Water Temp Dewpoint Dewpoint Depression Visibility Wind Speed Wind Dir Waves Ship Positions

City Of Long Beach

Owner: Long Beach Anglers, Inc., Long Beach, CA. More information available from US FCC via Universal Licensing System and Coast Guard Vessel Documentation Center.

Last reported at 2018-Jun-20 23:32 UTC. Time now 2018-Jun-21 12:13 UTC.
Position N 33°46' W 118°12'.

; draft 2 m.

Type: Ship. MMSI: 367034320.

Date/timePositionNaut miles runAvg speedWind from/ knotsBaromVisibWave heightAir tempDewpointWater temp
2018-Jun-20 23:32N 33°46' W 118°12'0 0.0
2018-Jun-20 23:30N 33°46' W 118°12'1 2.4
2018-Jun-20 22:58N 33°45' W 118°11'3 6.1
2018-Jun-20 22:30N 33°42' W 118°11'3 6.3
2018-Jun-20 22:01N 33°40' W 118°14'0 0.0
2018-Jun-20 21:31N 33°40' W 118°14'0 0.0
2018-Jun-20 20:58N 33°40' W 118°14'2 4.6
2018-Jun-20 20:30N 33°38' W 118°12'2 4.7
2018-Jun-20 20:00N 33°36' W 118°11'0 0.0
2018-Jun-20 19:30N 33°36' W 118°11'0 0.0
2018-Jun-20 18:59N 33°36' W 118°11'1 2.7
2018-Jun-20 18:30N 33°37' W 118°11'4 8.2
2018-Jun-20 17:59N 33°41' W 118°09'3 5.5
2018-Jun-20 17:30N 33°44' W 118°08'3 6.6
2018-Jun-20 17:01N 33°46' W 118°12'0 0.9
2018-Jun-20 16:29N 33°45' W 118°11'1 0.0
2018-Jun-19 20:32N 33°46' W 118°12'0 0.0
2018-Jun-19 20:30N 33°46' W 118°12'0 0.0
2018-Jun-19 20:00N 33°46' W 118°12'0 0.0
2018-Jun-19 19:30N 33°46' W 118°12'0 0.0
2018-Jun-19 19:00N 33°46' W 118°12'0 0.0
2018-Jun-19 18:29N 33°46' W 118°12'0 0.0
2018-Jun-19 18:00N 33°46' W 118°12'0 0.0
2018-Jun-19 17:30N 33°46' W 118°12'0 0.0
2018-Jun-19 17:00N 33°46' W 118°12'0 0.0
2018-Jun-19 16:29N 33°46' W 118°12'0 0.2
2018-Jun-19 16:00N 33°46' W 118°12'1 2.2
2018-Jun-19 15:30N 33°45' W 118°11'1 2.4
2018-Jun-19 15:00N 33°46' W 118°12'0 0.0
2018-Jun-18 01:23N 33°46' W 118°12'2 6.2
2018-Jun-18 01:00N 33°43' W 118°11'4 8.6
2018-Jun-18 00:30N 33°39' W 118°11'4 7.1
2018-Jun-18 00:00N 33°36' W 118°13'0 0.0
2018-Jun-17 23:30N 33°36' W 118°13'0 0.3
2018-Jun-17 23:00N 33°36' W 118°13'0 0.0
2018-Jun-17 22:30N 33°36' W 118°13'2 3.7
2018-Jun-17 21:59N 33°35' W 118°10'0 0.0
2018-Jun-17 21:30N 33°35' W 118°10'2 4.1
2018-Jun-17 21:00N 33°37' W 118°11'4 8.4
2018-Jun-17 20:30N 33°42' W 118°11'4 8.0
2018-Jun-17 20:00N 33°46' W 118°12'0 0.3
2018-Jun-17 19:30N 33°46' W 118°12'1 1.7
2018-Jun-17 19:00N 33°45' W 118°11'4 8.1
2018-Jun-17 18:30N 33°41' W 118°11'4 8.4
2018-Jun-17 18:00N 33°37' W 118°12'1 2.5
2018-Jun-17 17:30N 33°36' W 118°13'0 0.0
2018-Jun-17 17:00N 33°36' W 118°13'0 0.0
2018-Jun-17 16:30N 33°36' W 118°13'0 0.0
2018-Jun-17 15:59N 33°36' W 118°13'0 0.0
2018-Jun-17 15:30N 33°36' W 118°13'0 0.0
2018-Jun-17 15:00N 33°36' W 118°13'3 6.4
2018-Jun-17 14:30N 33°39' W 118°12'4 8.6
2018-Jun-17 14:00N 33°43' W 118°11'2 5.0
2018-Jun-17 13:30N 33°46' W 118°12'0 0.0
2018-Jun-17 13:00N 33°46' W 118°12'0 0.0
2018-Jun-17 07:29N 33°46' W 118°12'1 1.5
2018-Jun-17 07:00N 33°45' W 118°11'4 8.2
2018-Jun-17 06:30N 33°41' W 118°11'3 5.7
2018-Jun-17 06:00N 33°38' W 118°12'3 5.3
2018-Jun-17 05:30N 33°36' W 118°13'0 0.0
2018-Jun-17 05:00N 33°36' W 118°13'0 0.0
2018-Jun-17 04:30N 33°36' W 118°13'0 0.0
2018-Jun-17 03:59N 33°36' W 118°13'1 2.0
2018-Jun-17 03:30N 33°37' W 118°13'3 5.8
2018-Jun-17 03:00N 33°40' W 118°13'1 1.3
2018-Jun-17 02:29N 33°40' W 118°13'4 7.8
2018-Jun-17 02:00N 33°44' W 118°11'2 4.3
2018-Jun-17 01:30N 33°46' W 118°12'0 0.4
2018-Jun-17 00:58N 33°46' W 118°12'4 7.9
2018-Jun-17 00:30N 33°42' W 118°11'3 6.4
2018-Jun-17 00:00N 33°40' W 118°14'0 0.0
2018-Jun-16 23:30N 33°40' W 118°14'0 0.7
2018-Jun-16 22:59N 33°39' W 118°14'0 0.0
2018-Jun-16 22:30N 33°39' W 118°14'0 0.0
2018-Jun-16 21:59N 33°39' W 118°14'0 0.2
2018-Jun-16 21:30N 33°39' W 118°14'4 7.4
2018-Jun-16 21:00N 33°43' W 118°12'3 5.7
2018-Jun-16 20:30N 33°44' W 118°08'1 1.4
2018-Jun-16 20:00N 33°44' W 118°09'3 5.6
2018-Jun-16 19:30N 33°46' W 118°12'0 0.0
2018-Jun-16 19:00N 33°46' W 118°12'3 5.8
2018-Jun-16 18:30N 33°43' W 118°11'4 7.9
2018-Jun-16 18:00N 33°39' W 118°12'3 6.4
2018-Jun-16 17:30N 33°36' W 118°13'0 0.0
2018-Jun-16 17:00N 33°36' W 118°13'0 0.1
2018-Jun-16 16:30N 33°36' W 118°13'0 0.0
2018-Jun-16 16:00N 33°36' W 118°13'0 0.1
2018-Jun-16 15:30N 33°36' W 118°13'0 0.1
2018-Jun-16 15:00N 33°36' W 118°13'4 8.1
2018-Jun-16 14:30N 33°40' W 118°12'4 8.3
2018-Jun-16 14:00N 33°44' W 118°11'2 3.8
2018-Jun-16 13:30N 33°46' W 118°12'0 0.0
2018-Jun-16 13:00N 33°46' W 118°12'0 0.0
2018-Jun-15 23:40N 33°46' W 118°12'0 0.3
2018-Jun-15 23:31N 33°46' W 118°12'1 1.8
2018-Jun-15 23:00N 33°45' W 118°11'3 5.2
2018-Jun-15 22:29N 33°42' W 118°11'3 6.9
2018-Jun-15 22:01N 33°40' W 118°14'0 0.8
2018-Jun-15 21:29N 33°40' W 118°14'0 0.0
2018-Jun-15 21:00N 33°40' W 118°14'0 0.0
2018-Jun-15 20:30N 33°40' W 118°14'3 5.8
2018-Jun-15 20:01N 33°37' W 118°13'1 1.9
2018-Jun-15 19:30N 33°36' W 118°13'0 0.1
2018-Jun-15 19:01N 33°36' W 118°13'0 0.0
2018-Jun-15 18:30N 33°36' W 118°13'2 4.7
2018-Jun-15 18:00N 33°38' W 118°12'4 8.1
2018-Jun-15 17:30N 33°42' W 118°11'3 6.9
2018-Jun-15 17:00N 33°46' W 118°12'0 0.1
2018-Jun-15 16:29N 33°46' W 118°12'3 6.8
2018-Jun-15 15:59N 33°43' W 118°08'0 0.5
2018-Jun-15 15:31N 33°44' W 118°09'3 0.2
2018-Jun-14 23:30N 33°46' W 118°12'1 1.2
2018-Jun-14 23:00N 33°45' W 118°11'3 5.8
2018-Jun-14 22:30N 33°42' W 118°11'3 6.1
2018-Jun-14 22:00N 33°40' W 118°13'1 1.0
2018-Jun-14 21:28N 33°40' W 118°14'0 0.0
2018-Jun-14 20:56N 33°40' W 118°14'0 0.8
2018-Jun-14 20:30N 33°39' W 118°14'0 0.0
2018-Jun-14 20:00N 33°39' W 118°14'4 6.8
2018-Jun-14 19:29N 33°36' W 118°13'1 1.3
2018-Jun-14 19:00N 33°36' W 118°13'0 0.0
2018-Jun-14 18:30N 33°36' W 118°13'3 5.6
2018-Jun-14 17:59N 33°39' W 118°12'4 8.7
2018-Jun-14 17:30N 33°43' W 118°11'3 5.9
2018-Jun-14 17:00N 33°46' W 118°12'0 0.0
2018-Jun-14 16:30N 33°46' W 118°12'3 6.4
2018-Jun-14 16:00N 33°44' W 118°09'0 0.4
2018-Jun-14 15:30N 33°44' W 118°09'3 0.2
2018-Jun-13 23:34N 33°46' W 118°12'0 0.0
2018-Jun-13 23:30N 33°46' W 118°12'1 2.7
2018-Jun-13 23:00N 33°45' W 118°11'4 8.0
2018-Jun-13 22:30N 33°41' W 118°11'2 4.4
2018-Jun-13 21:59N 33°39' W 118°14'0 0.0
2018-Jun-13 21:30N 33°39' W 118°14'0 0.0
2018-Jun-13 21:00N 33°39' W 118°14'1 1.2
2018-Jun-13 20:30N 33°39' W 118°14'3 6.3
2018-Jun-13 20:00N 33°36' W 118°13'0 0.0
2018-Jun-13 19:30N 33°36' W 118°13'0 0.0
2018-Jun-13 19:00N 33°36' W 118°13'0 0.1
2018-Jun-13 18:30N 33°36' W 118°13'1 2.1
2018-Jun-13 18:00N 33°37' W 118°12'4 8.4
2018-Jun-13 17:30N 33°41' W 118°11'4 8.6
2018-Jun-13 17:00N 33°45' W 118°11'1 1.3
2018-Jun-13 16:30N 33°46' W 118°12'0 0.1
2018-Jun-13 16:00N 33°46' W 118°12'1 1.6
2018-Jun-13 15:29N 33°45' W 118°11'1 0.1
2018-Jun-12 23:11N 33°46' W 118°12'0 0.0
2018-Jun-12 23:00N 33°46' W 118°12'2 4.3
2018-Jun-12 22:30N 33°44' W 118°11'4 8.3
2018-Jun-12 22:00N 33°40' W 118°12'4 7.3
2018-Jun-12 21:29N 33°36' W 118°13'0 0.0
2018-Jun-12 21:00N 33°36' W 118°13'0 0.0
2018-Jun-12 20:30N 33°36' W 118°13'0 0.2
2018-Jun-12 20:00N 33°36' W 118°13'1 2.2
2018-Jun-12 19:30N 33°36' W 118°11'0 0.2
2018-Jun-12 19:00N 33°36' W 118°11'4 7.9
2018-Jun-12 18:31N 33°39' W 118°13'1 1.3
2018-Jun-12 18:00N 33°40' W 118°14'4 7.2
2018-Jun-12 17:30N 33°43' W 118°11'3 6.5
2018-Jun-12 17:00N 33°46' W 118°12'0 0.0
2018-Jun-11 23:13N 33°46' W 118°12'0 0.8
2018-Jun-11 23:00N 33°46' W 118°12'4 7.3
2018-Jun-11 22:30N 33°42' W 118°11'2 4.2
2018-Jun-11 22:00N 33°40' W 118°12'1 1.3
2018-Jun-11 21:30N 33°39' W 118°12'1 2.5
2018-Jun-11 21:00N 33°40' W 118°13'2 4.5
2018-Jun-11 20:30N 33°38' W 118°12'2 4.8
2018-Jun-11 20:00N 33°36' W 118°11'0 0.0
2018-Jun-11 19:30N 33°36' W 118°11'0 0.0
2018-Jun-11 18:58N 33°36' W 118°11'0 0.6
2018-Jun-11 18:30N 33°36' W 118°11'4 7.9
2018-Jun-11 18:00N 33°40' W 118°11'4 7.9
2018-Jun-11 17:30N 33°44' W 118°11'2 4.2
2018-Jun-11 17:00N 33°46' W 118°12'0 0.0
2018-Jun-11 01:20N 33°46' W 118°12'2 5.1
2018-Jun-11 01:00N 33°44' W 118°11'2 3.8
2018-Jun-11 00:30N 33°42' W 118°11'1 2.7
2018-Jun-11 00:00N 33°42' W 118°09'  

Dump ship's entire track history